Terminal Aerodrome Forecast
Issued by NWS Blacksburg, VA

Current Version | Previous Version | Graphics & Text | Print | Product List | Glossary On
Versions: 1 2 3 4 5 6 7 8 9 10 11 12 13 14 15 16 17 18 19 20 21 22 23 24 25 26 27 28 29 30 31 32 33 34 35 36 37 38 39 40 41 42 43 44 45 46
134
FTUS41 KRNK 190533 AAA
TAFBLF
TAF AMD
KBLF 190533Z 1906/2006 26005KT P6SM SCT015 BKN040
      TEMPO 1906/1910 2SM -SHRA BR SCT003 OVC015
     FM191200 29006KT P6SM BKN003
     FM191500 29009G17KT P6SM BKN020
     FM191700 29010G18KT P6SM BKN040
     FM192000 30009KT P6SM SCT040
     FM192300 29005KT P6SM FEW040=

USA.gov is the U.S. government's official web portal to all federal, state and local government web resources and services.